sensor_id;sensor_type;location;lat;lon;timestamp;temperature;humidity
12291;DHT22;6208;48.956;9.076;2022-12-29T00:01:25;9.90;93.40
12291;DHT22;6208;48.956;9.076;2022-12-29T00:04:12;9.90;93.70
12291;DHT22;6208;48.956;9.076;2022-12-29T00:06:57;9.90;93.50
12291;DHT22;6208;48.956;9.076;2022-12-29T00:09:41;9.90;93.50
12291;DHT22;6208;48.956;9.076;2022-12-29T00:12:25;9.90;93.60
12291;DHT22;6208;48.956;9.076;2022-12-29T00:15:29;9.90;93.60
12291;DHT22;6208;48.956;9.076;2022-12-29T00:18:23;9.90;93.70
12291;DHT22;6208;48.956;9.076;2022-12-29T00:21:10;9.90;93.90
12291;DHT22;6208;48.956;9.076;2022-12-29T00:24:20;9.90;93.80
12291;DHT22;6208;48.956;9.076;2022-12-29T00:27:12;9.90;94.20
12291;DHT22;6208;48.956;9.076;2022-12-29T00:30:20;9.80;94.40
12291;DHT22;6208;48.956;9.076;2022-12-29T00:33:28;10.00;93.50
12291;DHT22;6208;48.956;9.076;2022-12-29T00:36:38;9.90;94.20
12291;DHT22;6208;48.956;9.076;2022-12-29T00:39:23;10.00;93.40
12291;DHT22;6208;48.956;9.076;2022-12-29T00:42:26;10.00;93.50
12291;DHT22;6208;48.956;9.076;2022-12-29T00:45:29;10.10;93.30
12291;DHT22;6208;48.956;9.076;2022-12-29T00:48:13;10.10;93.20
12291;DHT22;6208;48.956;9.076;2022-12-29T00:50:57;10.10;93.20
12291;DHT22;6208;48.956;9.076;2022-12-29T00:53:41;10.10;93.30
12291;DHT22;6208;48.956;9.076;2022-12-29T00:56:25;10.30;93.00
12291;DHT22;6208;48.956;9.076;2022-12-29T00:59:10;10.10;93.20
12291;DHT22;6208;48.956;9.076;2022-12-29T01:01:56;10.20;93.50
12291;DHT22;6208;48.956;9.076;2022-12-29T01:04:40;10.40;93.20
12291;DHT22;6208;48.956;9.076;2022-12-29T01:07:24;10.20;93.40
12291;DHT22;6208;48.956;9.076;2022-12-29T01:10:08;10.10;93.60
12291;DHT22;6208;48.956;9.076;2022-12-29T01:12:56;10.20;93.60
12291;DHT22;6208;48.956;9.076;2022-12-29T01:15:40;10.00;93.80
12291;DHT22;6208;48.956;9.076;2022-12-29T01:18:25;10.10;93.70
12291;DHT22;6208;48.956;9.076;2022-12-29T01:21:12;10.30;93.30
12291;DHT22;6208;48.956;9.076;2022-12-29T01:23:57;10.40;93.20
12291;DHT22;6208;48.956;9.076;2022-12-29T01:26:41;10.70;92.90
12291;DHT22;6208;48.956;9.076;2022-12-29T01:29:26;10.60;92.60
12291;DHT22;6208;48.956;9.076;2022-12-29T01:32:10;10.60;93.00
12291;DHT22;6208;48.956;9.076;2022-12-29T01:34:54;10.70;93.20
12291;DHT22;6208;48.956;9.076;2022-12-29T01:37:38;10.80;93.00
12291;DHT22;6208;48.956;9.076;2022-12-29T01:40:22;10.60;93.30
12291;DHT22;6208;48.956;9.076;2022-12-29T01:43:10;10.80;93.40
12291;DHT22;6208;48.956;9.076;2022-12-29T01:45:54;10.80;93.00
12291;DHT22;6208;48.956;9.076;2022-12-29T01:48:39;10.70;93.20
12291;DHT22;6208;48.956;9.076;2022-12-29T01:51:25;10.70;93.10
12291;DHT22;6208;48.956;9.076;2022-12-29T01:54:15;10.70;93.30
12291;DHT22;6208;48.956;9.076;2022-12-29T01:57:05;10.70;93.40
12291;DHT22;6208;48.956;9.076;2022-12-29T02:00:00;10.60;93.40
12291;DHT22;6208;48.956;9.076;2022-12-29T02:02:49;10.50;93.50
12291;DHT22;6208;48.956;9.076;2022-12-29T02:05:39;10.30;93.80
12291;DHT22;6208;48.956;9.076;2022-12-29T02:08:27;10.40;94.10
12291;DHT22;6208;48.956;9.076;2022-12-29T02:11:13;10.70;93.60
12291;DHT22;6208;48.956;9.076;2022-12-29T02:13:57;10.70;93.50
12291;DHT22;6208;48.956;9.076;2022-12-29T02:17:04;10.70;93.20
12291;DHT22;6208;48.956;9.076;2022-12-29T02:22:48;10.90;93.20
12291;DHT22;6208;48.956;9.076;2022-12-29T02:46:33;11.10;91.70
12291;DHT22;6208;48.956;9.076;2022-12-29T02:49:35;11.00;91.60
12291;DHT22;6208;48.956;9.076;2022-12-29T02:52:27;11.10;91.90
12291;DHT22;6208;48.956;9.076;2022-12-29T02:55:14;11.00;92.20
12291;DHT22;6208;48.956;9.076;2022-12-29T02:58:14;11.00;92.30
12291;DHT22;6208;48.956;9.076;2022-12-29T03:10:18;11.40;90.60
12291;DHT22;6208;48.956;9.076;2022-12-29T03:16:45;11.50;90.40
12291;DHT22;6208;48.956;9.076;2022-12-29T03:19:32;11.50;90.70
12291;DHT22;6208;48.956;9.076;2022-12-29T03:22:22;11.50;90.50
12291;DHT22;6208;48.956;9.076;2022-12-29T03:25:25;11.40;90.30
12291;DHT22;6208;48.956;9.076;2022-12-29T03:28:13;11.40;90.70
12291;DHT22;6208;48.956;9.076;2022-12-29T03:31:00;11.60;90.40
12291;DHT22;6208;48.956;9.076;2022-12-29T03:33:46;11.50;90.50
12291;DHT22;6208;48.956;9.076;2022-12-29T03:36:36;11.70;90.50
12291;DHT22;6208;48.956;9.076;2022-12-29T03:39:23;11.80;90.00
12291;DHT22;6208;48.956;9.076;2022-12-29T03:42:17;11.80;90.40
12291;DHT22;6208;48.956;9.076;2022-12-29T03:45:04;11.80;90.90
12291;DHT22;6208;48.956;9.076;2022-12-29T03:47:51;12.00;90.90
12291;DHT22;6208;48.956;9.076;2022-12-29T03:50:36;12.20;90.70
12291;DHT22;6208;48.956;9.076;2022-12-29T03:53:20;12.00;89.40
12291;DHT22;6208;48.956;9.076;2022-12-29T03:56:04;11.80;89.40
12291;DHT22;6208;48.956;9.076;2022-12-29T03:58:49;11.50;90.20
12291;DHT22;6208;48.956;9.076;2022-12-29T04:01:33;11.50;90.30
12291;DHT22;6208;48.956;9.076;2022-12-29T04:04:17;11.60;90.50
12291;DHT22;6208;48.956;9.076;2022-12-29T04:07:01;11.50;90.10
12291;DHT22;6208;48.956;9.076;2022-12-29T04:09:45;11.50;90.70
12291;DHT22;6208;48.956;9.076;2022-12-29T04:12:29;11.50;90.70
12291;DHT22;6208;48.956;9.076;2022-12-29T04:15:13;11.50;90.70
12291;DHT22;6208;48.956;9.076;2022-12-29T04:17:58;11.50;90.70
12291;DHT22;6208;48.956;9.076;2022-12-29T04:20:42;11.50;90.70
12291;DHT22;6208;48.956;9.076;2022-12-29T04:23:44;11.50;90.70
12291;DHT22;6208;48.956;9.076;2022-12-29T04:26:31;11.50;90.90
12291;DHT22;6208;48.956;9.076;2022-12-29T04:29:16;11.70;90.70
12291;DHT22;6208;48.956;9.076;2022-12-29T04:32:00;12.00;90.20
12291;DHT22;6208;48.956;9.076;2022-12-29T04:34:44;12.20;88.80
12291;DHT22;6208;48.956;9.076;2022-12-29T04:37:28;12.00;88.10
12291;DHT22;6208;48.956;9.076;2022-12-29T04:40:12;12.10;87.90
12291;DHT22;6208;48.956;9.076;2022-12-29T04:42:56;12.10;88.50
12291;DHT22;6208;48.956;9.076;2022-12-29T04:45:44;12.00;88.70
12291;DHT22;6208;48.956;9.076;2022-12-29T04:48:29;11.80;89.90
12291;DHT22;6208;48.956;9.076;2022-12-29T04:51:13;11.70;90.50
12291;DHT22;6208;48.956;9.076;2022-12-29T04:53:57;11.90;90.40
12291;DHT22;6208;48.956;9.076;2022-12-29T04:56:41;11.70;90.40
12291;DHT22;6208;48.956;9.076;2022-12-29T04:59:25;11.70;90.60
12291;DHT22;6208;48.956;9.076;2022-12-29T05:02:09;11.90;90.50
12291;DHT22;6208;48.956;9.076;2022-12-29T05:04:53;11.90;90.30
12291;DHT22;6208;48.956;9.076;2022-12-29T05:07:38;11.80;90.50
12291;DHT22;6208;48.956;9.076;2022-12-29T05:10:22;11.80;90.60
12291;DHT22;6208;48.956;9.076;2022-12-29T05:13:07;11.80;90.40
12291;DHT22;6208;48.956;9.076;2022-12-29T05:15:52;11.80;90.60
12291;DHT22;6208;48.956;9.076;2022-12-29T05:18:36;11.70;90.80
12291;DHT22;6208;48.956;9.076;2022-12-29T05:21:20;11.80;90.70
12291;DHT22;6208;48.956;9.076;2022-12-29T05:24:04;11.90;90.50
12291;DHT22;6208;48.956;9.076;2022-12-29T05:26:49;11.90;90.30
12291;DHT22;6208;48.956;9.076;2022-12-29T05:29:33;12.00;90.80
12291;DHT22;6208;48.956;9.076;2022-12-29T05:32:17;11.90;90.70
12291;DHT22;6208;48.956;9.076;2022-12-29T05:35:01;11.80;91.00
12291;DHT22;6208;48.956;9.076;2022-12-29T05:37:45;11.70;91.60
12291;DHT22;6208;48.956;9.076;2022-12-29T05:40:29;11.60;91.80
12291;DHT22;6208;48.956;9.076;2022-12-29T05:43:13;11.50;92.10
12291;DHT22;6208;48.956;9.076;2022-12-29T05:45:57;11.60;92.40
12291;DHT22;6208;48.956;9.076;2022-12-29T05:48:41;11.50;92.70
12291;DHT22;6208;48.956;9.076;2022-12-29T05:51:25;11.40;92.80
12291;DHT22;6208;48.956;9.076;2022-12-29T05:54:09;11.50;92.90
12291;DHT22;6208;48.956;9.076;2022-12-29T05:56:53;11.50;93.00
12291;DHT22;6208;48.956;9.076;2022-12-29T05:59:38;11.60;93.00
12291;DHT22;6208;48.956;9.076;2022-12-29T06:02:22;11.50;93.30
12291;DHT22;6208;48.956;9.076;2022-12-29T06:05:06;11.60;93.20
12291;DHT22;6208;48.956;9.076;2022-12-29T06:07:50;11.70;92.70
12291;DHT22;6208;48.956;9.076;2022-12-29T06:10:34;11.80;92.50
12291;DHT22;6208;48.956;9.076;2022-12-29T06:13:18;11.50;93.10
12291;DHT22;6208;48.956;9.076;2022-12-29T06:16:03;11.50;93.60
12291;DHT22;6208;48.956;9.076;2022-12-29T06:18:47;11.50;93.40
12291;DHT22;6208;48.956;9.076;2022-12-29T06:21:31;11.50;93.50
12291;DHT22;6208;48.956;9.076;2022-12-29T06:24:15;11.60;93.50
12291;DHT22;6208;48.956;9.076;2022-12-29T06:26:59;11.80;93.00
12291;DHT22;6208;48.956;9.076;2022-12-29T06:29:43;11.90;92.90
12291;DHT22;6208;48.956;9.076;2022-12-29T06:32:28;12.10;92.70
12291;DHT22;6208;48.956;9.076;2022-12-29T06:35:12;12.30;92.10
12291;DHT22;6208;48.956;9.076;2022-12-29T06:37:56;12.30;91.90
12291;DHT22;6208;48.956;9.076;2022-12-29T06:40:42;12.30;91.70
12291;DHT22;6208;48.956;9.076;2022-12-29T06:43:28;12.40;91.50
12291;DHT22;6208;48.956;9.076;2022-12-29T06:46:14;12.40;91.50
12291;DHT22;6208;48.956;9.076;2022-12-29T06:48:58;12.40;91.40
12291;DHT22;6208;48.956;9.076;2022-12-29T06:51:42;12.50;91.40
12291;DHT22;6208;48.956;9.076;2022-12-29T06:54:26;12.60;91.30
12291;DHT22;6208;48.956;9.076;2022-12-29T06:57:10;12.50;91.30
12291;DHT22;6208;48.956;9.076;2022-12-29T06:59:54;12.50;91.20
12291;DHT22;6208;48.956;9.076;2022-12-29T07:02:41;12.60;91.10
12291;DHT22;6208;48.956;9.076;2022-12-29T07:05:26;12.80;91.00
12291;DHT22;6208;48.956;9.076;2022-12-29T07:08:11;12.50;90.80
12291;DHT22;6208;48.956;9.076;2022-12-29T07:10:55;12.50;90.80
12291;DHT22;6208;48.956;9.076;2022-12-29T07:13:39;12.50;90.90
12291;DHT22;6208;48.956;9.076;2022-12-29T07:16:24;12.40;90.70
12291;DHT22;6208;48.956;9.076;2022-12-29T07:19:09;12.40;90.80
12291;DHT22;6208;48.956;9.076;2022-12-29T07:21:54;12.10;91.20
12291;DHT22;6208;48.956;9.076;2022-12-29T07:24:41;12.00;91.50
12291;DHT22;6208;48.956;9.076;2022-12-29T07:27:27;12.00;91.40
12291;DHT22;6208;48.956;9.076;2022-12-29T07:30:11;12.20;91.40
12291;DHT22;6208;48.956;9.076;2022-12-29T07:32:56;12.30;91.50
12291;DHT22;6208;48.956;9.076;2022-12-29T07:35:40;12.20;91.30
12291;DHT22;6208;48.956;9.076;2022-12-29T07:38:25;12.30;91.20
12291;DHT22;6208;48.956;9.076;2022-12-29T07:41:09;12.40;91.20
12291;DHT22;6208;48.956;9.076;2022-12-29T07:43:53;12.40;91.00
12291;DHT22;6208;48.956;9.076;2022-12-29T07:46:37;12.40;90.90
12291;DHT22;6208;48.956;9.076;2022-12-29T07:49:21;12.00;91.70
12291;DHT22;6208;48.956;9.076;2022-12-29T07:52:09;11.60;92.20
12291;DHT22;6208;48.956;9.076;2022-12-29T07:54:56;11.40;93.20
12291;DHT22;6208;48.956;9.076;2022-12-29T07:57:40;11.20;93.70
12291;DHT22;6208;48.956;9.076;2022-12-29T08:00:24;11.00;94.10
12291;DHT22;6208;48.956;9.076;2022-12-29T08:03:08;10.90;94.20
12291;DHT22;6208;48.956;9.076;2022-12-29T08:05:52;10.90;94.10
12291;DHT22;6208;48.956;9.076;2022-12-29T08:08:36;10.90;93.90
12291;DHT22;6208;48.956;9.076;2022-12-29T08:11:22;11.00;94.10
12291;DHT22;6208;48.956;9.076;2022-12-29T08:14:06;11.10;94.00
12291;DHT22;6208;48.956;9.076;2022-12-29T08:16:51;11.30;93.80
12291;DHT22;6208;48.956;9.076;2022-12-29T08:19:35;11.40;94.00
12291;DHT22;6208;48.956;9.076;2022-12-29T08:22:24;11.50;93.30
12291;DHT22;6208;48.956;9.076;2022-12-29T08:25:08;11.20;93.60
12291;DHT22;6208;48.956;9.076;2022-12-29T08:27:55;11.10;93.30
12291;DHT22;6208;48.956;9.076;2022-12-29T08:30:39;11.10;93.80
12291;DHT22;6208;48.956;9.076;2022-12-29T08:33:23;11.10;94.10
12291;DHT22;6208;48.956;9.076;2022-12-29T08:36:08;11.00;93.90
12291;DHT22;6208;48.956;9.076;2022-12-29T08:38:52;11.10;93.20
12291;DHT22;6208;48.956;9.076;2022-12-29T08:41:37;11.40;93.20
12291;DHT22;6208;48.956;9.076;2022-12-29T08:44:21;11.50;92.60
12291;DHT22;6208;48.956;9.076;2022-12-29T08:47:06;11.50;92.50
12291;DHT22;6208;48.956;9.076;2022-12-29T08:49:50;11.60;92.60
12291;DHT22;6208;48.956;9.076;2022-12-29T08:52:34;11.70;92.30
12291;DHT22;6208;48.956;9.076;2022-12-29T08:55:18;11.90;91.90
12291;DHT22;6208;48.956;9.076;2022-12-29T08:58:02;11.70;92.40
12291;DHT22;6208;48.956;9.076;2022-12-29T09:00:46;11.70;92.80
12291;DHT22;6208;48.956;9.076;2022-12-29T09:03:30;11.50;93.50
12291;DHT22;6208;48.956;9.076;2022-12-29T09:06:16;11.30;93.80
12291;DHT22;6208;48.956;9.076;2022-12-29T09:09:00;11.40;93.50
12291;DHT22;6208;48.956;9.076;2022-12-29T09:11:45;11.60;93.30
12291;DHT22;6208;48.956;9.076;2022-12-29T09:14:29;11.80;92.60
12291;DHT22;6208;48.956;9.076;2022-12-29T09:17:13;11.70;92.90
12291;DHT22;6208;48.956;9.076;2022-12-29T09:20:18;12.00;92.80
12291;DHT22;6208;48.956;9.076;2022-12-29T09:23:03;12.20;91.80
12291;DHT22;6208;48.956;9.076;2022-12-29T09:25:47;12.40;91.30
12291;DHT22;6208;48.956;9.076;2022-12-29T09:28:31;12.40;91.70
12291;DHT22;6208;48.956;9.076;2022-12-29T09:31:15;12.60;91.20
12291;DHT22;6208;48.956;9.076;2022-12-29T09:33:59;12.60;90.30
12291;DHT22;6208;48.956;9.076;2022-12-29T09:36:43;12.70;90.00
12291;DHT22;6208;48.956;9.076;2022-12-29T09:39:27;12.90;90.30
12291;DHT22;6208;48.956;9.076;2022-12-29T09:45:42;13.20;90.30
12291;DHT22;6208;48.956;9.076;2022-12-29T09:48:30;13.30;88.80
12291;DHT22;6208;48.956;9.076;2022-12-29T09:51:21;13.40;87.70
12291;DHT22;6208;48.956;9.076;2022-12-29T09:57:19;13.30;88.30
12291;DHT22;6208;48.956;9.076;2022-12-29T10:00:17;13.40;88.20
12291;DHT22;6208;48.956;9.076;2022-12-29T10:03:22;13.30;88.90
12291;DHT22;6208;48.956;9.076;2022-12-29T10:06:19;13.30;87.70
12291;DHT22;6208;48.956;9.076;2022-12-29T10:09:26;13.30;88.70
12291;DHT22;6208;48.956;9.076;2022-12-29T10:12:47;13.40;88.80
12291;DHT22;6208;48.956;9.076;2022-12-29T10:18:38;13.40;88.40
12291;DHT22;6208;48.956;9.076;2022-12-29T10:24:29;13.20;88.50
12291;DHT22;6208;48.956;9.076;2022-12-29T10:27:15;13.30;89.40
12291;DHT22;6208;48.956;9.076;2022-12-29T10:30:02;13.30;90.30
12291;DHT22;6208;48.956;9.076;2022-12-29T10:32:51;13.50;90.40
12291;DHT22;6208;48.956;9.076;2022-12-29T10:35:39;13.50;90.20
12291;DHT22;6208;48.956;9.076;2022-12-29T10:38:29;13.50;90.00
12291;DHT22;6208;48.956;9.076;2022-12-29T10:41:24;13.60;90.30
12291;DHT22;6208;48.956;9.076;2022-12-29T10:44:14;13.60;90.60
12291;DHT22;6208;48.956;9.076;2022-12-29T10:47:06;13.50;89.80
12291;DHT22;6208;48.956;9.076;2022-12-29T10:49:51;13.40;90.10
12291;DHT22;6208;48.956;9.076;2022-12-29T10:52:38;13.50;90.30
12291;DHT22;6208;48.956;9.076;2022-12-29T10:55:32;13.60;90.20
12291;DHT22;6208;48.956;9.076;2022-12-29T10:58:18;13.40;89.40
12291;DHT22;6208;48.956;9.076;2022-12-29T11:01:03;13.50;90.00
12291;DHT22;6208;48.956;9.076;2022-12-29T11:07:17;13.70;90.40
12291;DHT22;6208;48.956;9.076;2022-12-29T11:10:34;13.60;90.30
12291;DHT22;6208;48.956;9.076;2022-12-29T11:13:26;13.60;90.20
12291;DHT22;6208;48.956;9.076;2022-12-29T11:16:11;13.80;90.70
12291;DHT22;6208;48.956;9.076;2022-12-29T11:18:56;13.70;89.80
12291;DHT22;6208;48.956;9.076;2022-12-29T11:21:40;13.70;89.80
12291;DHT22;6208;48.956;9.076;2022-12-29T11:24:28;13.60;89.40
12291;DHT22;6208;48.956;9.076;2022-12-29T11:27:21;13.70;90.30
12291;DHT22;6208;48.956;9.076;2022-12-29T11:30:27;13.60;89.80
12291;DHT22;6208;48.956;9.076;2022-12-29T11:33:11;13.60;87.00
12291;DHT22;6208;48.956;9.076;2022-12-29T11:36:05;13.50;87.40
12291;DHT22;6208;48.956;9.076;2022-12-29T11:38:54;13.50;84.40
12291;DHT22;6208;48.956;9.076;2022-12-29T11:41:39;13.60;84.00
12291;DHT22;6208;48.956;9.076;2022-12-29T11:44:24;13.50;85.20
12291;DHT22;6208;48.956;9.076;2022-12-29T11:47:12;13.60;86.30
12291;DHT22;6208;48.956;9.076;2022-12-29T11:50:00;13.60;86.00
12291;DHT22;6208;48.956;9.076;2022-12-29T11:52:46;13.50;87.20
12291;DHT22;6208;48.956;9.076;2022-12-29T11:55:32;13.40;86.30
12291;DHT22;6208;48.956;9.076;2022-12-29T11:58:16;13.40;84.90
12291;DHT22;6208;48.956;9.076;2022-12-29T12:01:15;13.40;86.20
12291;DHT22;6208;48.956;9.076;2022-12-29T12:04:15;13.50;87.40
12291;DHT22;6208;48.956;9.076;2022-12-29T12:07:13;13.50;86.80
12291;DHT22;6208;48.956;9.076;2022-12-29T12:10:03;13.50;85.50
12291;DHT22;6208;48.956;9.076;2022-12-29T12:12:53;13.50;86.20
12291;DHT22;6208;48.956;9.076;2022-12-29T12:15:44;13.30;85.70
12291;DHT22;6208;48.956;9.076;2022-12-29T12:18:55;13.20;88.00
12291;DHT22;6208;48.956;9.076;2022-12-29T12:21:45;13.20;87.00
12291;DHT22;6208;48.956;9.076;2022-12-29T12:27:39;13.40;88.80
12291;DHT22;6208;48.956;9.076;2022-12-29T12:30:28;13.50;88.90
12291;DHT22;6208;48.956;9.076;2022-12-29T12:33:44;13.50;88.70
12291;DHT22;6208;48.956;9.076;2022-12-29T12:45:35;13.50;88.20
12291;DHT22;6208;48.956;9.076;2022-12-29T12:59:57;13.50;90.00
12291;DHT22;6208;48.956;9.076;2022-12-29T13:12:18;13.50;89.00
12291;DHT22;6208;48.956;9.076;2022-12-29T13:20:55;13.40;90.30
12291;DHT22;6208;48.956;9.076;2022-12-29T13:26:46;13.40;91.10
12291;DHT22;6208;48.956;9.076;2022-12-29T13:36:32;13.70;89.30
12291;DHT22;6208;48.956;9.076;2022-12-29T13:39:32;13.80;88.70
12291;DHT22;6208;48.956;9.076;2022-12-29T13:42:19;13.60;87.40
12291;DHT22;6208;48.956;9.076;2022-12-29T13:45:07;13.40;87.80
12291;DHT22;6208;48.956;9.076;2022-12-29T13:48:07;13.60;88.70
12291;DHT22;6208;48.956;9.076;2022-12-29T13:50:58;13.70;88.70
12291;DHT22;6208;48.956;9.076;2022-12-29T13:56:54;13.70;87.20
12291;DHT22;6208;48.956;9.076;2022-12-29T14:00:01;13.50;88.60
12291;DHT22;6208;48.956;9.076;2022-12-29T14:05:31;13.50;90.00
12291;DHT22;6208;48.956;9.076;2022-12-29T14:08:17;13.50;90.10
12291;DHT22;6208;48.956;9.076;2022-12-29T14:11:10;13.50;89.60
12291;DHT22;6208;48.956;9.076;2022-12-29T14:13:56;13.40;90.10
12291;DHT22;6208;48.956;9.076;2022-12-29T14:16:40;13.30;90.20
12291;DHT22;6208;48.956;9.076;2022-12-29T14:19:38;13.20;90.20
12291;DHT22;6208;48.956;9.076;2022-12-29T14:22:26;13.10;91.40
12291;DHT22;6208;48.956;9.076;2022-12-29T14:28:35;13.10;91.20
12291;DHT22;6208;48.956;9.076;2022-12-29T14:39:42;13.50;92.50
12291;DHT22;6208;48.956;9.076;2022-12-29T14:42:29;13.30;92.90
12291;DHT22;6208;48.956;9.076;2022-12-29T14:47:59;13.10;94.50
12291;DHT22;6208;48.956;9.076;2022-12-29T14:50:44;13.10;94.50
12291;DHT22;6208;48.956;9.076;2022-12-29T14:54:22;13.10;95.30
12291;DHT22;6208;48.956;9.076;2022-12-29T14:57:10;13.20;95.10
12291;DHT22;6208;48.956;9.076;2022-12-29T15:00:14;13.10;95.50
12291;DHT22;6208;48.956;9.076;2022-12-29T15:03:05;13.30;95.30
12291;DHT22;6208;48.956;9.076;2022-12-29T15:05:57;12.80;96.10
12291;DHT22;6208;48.956;9.076;2022-12-29T15:08:51;13.00;96.00
12291;DHT22;6208;48.956;9.076;2022-12-29T15:14:29;12.80;97.10
12291;DHT22;6208;48.956;9.076;2022-12-29T15:17:31;13.00;97.10
12291;DHT22;6208;48.956;9.076;2022-12-29T15:23:12;12.30;99.00
12291;DHT22;6208;48.956;9.076;2022-12-29T15:26:01;11.70;99.90
12291;DHT22;6208;48.956;9.076;2022-12-29T15:28:46;11.40;99.90
12291;DHT22;6208;48.956;9.076;2022-12-29T15:31:31;11.00;99.90
12291;DHT22;6208;48.956;9.076;2022-12-29T15:34:20;10.60;99.90
12291;DHT22;6208;48.956;9.076;2022-12-29T15:37:08;10.30;99.90
12291;DHT22;6208;48.956;9.076;2022-12-29T15:39:54;10.10;99.90
12291;DHT22;6208;48.956;9.076;2022-12-29T15:42:48;10.00;99.90
12291;DHT22;6208;48.956;9.076;2022-12-29T15:45:34;10.10;99.90
12291;DHT22;6208;48.956;9.076;2022-12-29T15:48:21;10.00;99.90
12291;DHT22;6208;48.956;9.076;2022-12-29T15:51:20;10.00;99.90
12291;DHT22;6208;48.956;9.076;2022-12-29T15:54:14;10.00;99.90
12291;DHT22;6208;48.956;9.076;2022-12-29T15:56:58;10.20;99.90
12291;DHT22;6208;48.956;9.076;2022-12-29T15:59:46;9.90;99.90
12291;DHT22;6208;48.956;9.076;2022-12-29T16:02:32;9.90;99.90
12291;DHT22;6208;48.956;9.076;2022-12-29T16:05:18;10.00;99.90
12291;DHT22;6208;48.956;9.076;2022-12-29T16:08:15;10.10;99.90
12291;DHT22;6208;48.956;9.076;2022-12-29T16:11:22;10.10;99.90
12291;DHT22;6208;48.956;9.076;2022-12-29T16:14:15;10.10;99.90
12291;DHT22;6208;48.956;9.076;2022-12-29T16:17:02;10.00;99.90
12291;DHT22;6208;48.956;9.076;2022-12-29T16:19:53;10.00;99.90
12291;DHT22;6208;48.956;9.076;2022-12-29T16:22:42;10.10;99.90
12291;DHT22;6208;48.956;9.076;2022-12-29T16:25:32;7.90;99.90
12291;DHT22;6208;48.956;9.076;2022-12-29T16:28:22;10.10;99.90
12291;DHT22;6208;48.956;9.076;2022-12-29T16:31:24;10.30;99.90
12291;DHT22;6208;48.956;9.076;2022-12-29T16:34:33;10.30;99.90
12291;DHT22;6208;48.956;9.076;2022-12-29T16:37:30;10.40;99.90
12291;DHT22;6208;48.956;9.076;2022-12-29T16:43:03;10.50;99.90
12291;DHT22;6208;48.956;9.076;2022-12-29T16:48:45;10.40;99.90
12291;DHT22;6208;48.956;9.076;2022-12-29T16:51:37;10.50;99.90
12291;DHT22;6208;48.956;9.076;2022-12-29T16:54:32;10.40;99.90
12291;DHT22;6208;48.956;9.076;2022-12-29T16:57:28;7.30;99.90
12291;DHT22;6208;48.956;9.076;2022-12-29T17:00:21;10.10;99.90
12291;DHT22;6208;48.956;9.076;2022-12-29T17:03:05;10.10;99.90
12291;DHT22;6208;48.956;9.076;2022-12-29T17:05:50;10.10;99.90
12291;DHT22;6208;48.956;9.076;2022-12-29T17:08:41;10.10;99.90
12291;DHT22;6208;48.956;9.076;2022-12-29T17:11:33;10.10;99.90
12291;DHT22;6208;48.956;9.076;2022-12-29T17:14:45;10.10;99.90
12291;DHT22;6208;48.956;9.076;2022-12-29T17:17:33;10.00;99.90
12291;DHT22;6208;48.956;9.076;2022-12-29T17:20:24;10.00;99.90
12291;DHT22;6208;48.956;9.076;2022-12-29T17:23:14;10.10;99.90
12291;DHT22;6208;48.956;9.076;2022-12-29T17:25:59;9.90;99.90
12291;DHT22;6208;48.956;9.076;2022-12-29T17:28:45;10.00;99.90
12291;DHT22;6208;48.956;9.076;2022-12-29T17:31:30;10.00;99.90
12291;DHT22;6208;48.956;9.076;2022-12-29T17:34:14;9.90;99.90
12291;DHT22;6208;48.956;9.076;2022-12-29T17:36:59;10.10;99.90
12291;DHT22;6208;48.956;9.076;2022-12-29T17:39:43;10.40;99.90
12291;DHT22;6208;48.956;9.076;2022-12-29T17:42:28;10.70;99.90
12291;DHT22;6208;48.956;9.076;2022-12-29T17:47:59;11.00;99.90
12291;DHT22;6208;48.956;9.076;2022-12-29T17:50:47;10.70;99.90
12291;DHT22;6208;48.956;9.076;2022-12-29T17:53:32;10.70;99.90
12291;DHT22;6208;48.956;9.076;2022-12-29T17:56:17;10.50;99.90
12291;DHT22;6208;48.956;9.076;2022-12-29T17:59:01;10.50;99.90
12291;DHT22;6208;48.956;9.076;2022-12-29T18:01:47;10.70;99.90
12291;DHT22;6208;48.956;9.076;2022-12-29T18:04:34;10.60;99.90
12291;DHT22;6208;48.956;9.076;2022-12-29T18:07:18;10.30;99.90
12291;DHT22;6208;48.956;9.076;2022-12-29T18:10:03;9.80;99.90
12291;DHT22;6208;48.956;9.076;2022-12-29T18:12:49;9.80;99.90
12291;DHT22;6208;48.956;9.076;2022-12-29T18:15:35;9.90;99.90
12291;DHT22;6208;48.956;9.076;2022-12-29T18:18:21;10.00;99.90
12291;DHT22;6208;48.956;9.076;2022-12-29T18:21:08;10.10;99.90
12291;DHT22;6208;48.956;9.076;2022-12-29T18:23:57;10.00;99.90
12291;DHT22;6208;48.956;9.076;2022-12-29T18:26:42;10.00;99.90
12291;DHT22;6208;48.956;9.076;2022-12-29T18:29:26;10.00;99.90
12291;DHT22;6208;48.956;9.076;2022-12-29T18:32:14;9.70;99.90
12291;DHT22;6208;48.956;9.076;2022-12-29T18:34:58;9.60;99.90
12291;DHT22;6208;48.956;9.076;2022-12-29T18:37:42;9.50;99.90
12291;DHT22;6208;48.956;9.076;2022-12-29T18:40:26;9.40;99.90
12291;DHT22;6208;48.956;9.076;2022-12-29T18:43:13;9.30;99.90
12291;DHT22;6208;48.956;9.076;2022-12-29T18:45:59;9.30;99.90
12291;DHT22;6208;48.956;9.076;2022-12-29T18:48:43;9.40;99.90
12291;DHT22;6208;48.956;9.076;2022-12-29T18:51:27;9.40;99.90
12291;DHT22;6208;48.956;9.076;2022-12-29T18:57:09;9.30;99.90
12291;DHT22;6208;48.956;9.076;2022-12-29T18:59:53;9.30;99.90
12291;DHT22;6208;48.956;9.076;2022-12-29T19:02:37;9.30;99.90
12291;DHT22;6208;48.956;9.076;2022-12-29T19:05:24;9.30;99.90
12291;DHT22;6208;48.956;9.076;2022-12-29T19:08:09;9.10;99.90
12291;DHT22;6208;48.956;9.076;2022-12-29T19:10:53;9.20;99.90
12291;DHT22;6208;48.956;9.076;2022-12-29T19:13:37;9.20;99.90
12291;DHT22;6208;48.956;9.076;2022-12-29T19:16:23;9.50;99.90
12291;DHT22;6208;48.956;9.076;2022-12-29T19:19:14;9.30;99.90
12291;DHT22;6208;48.956;9.076;2022-12-29T19:21:58;9.40;99.90
12291;DHT22;6208;48.956;9.076;2022-12-29T19:24:42;9.40;99.90
12291;DHT22;6208;48.956;9.076;2022-12-29T19:27:26;9.40;99.90
12291;DHT22;6208;48.956;9.076;2022-12-29T19:30:12;9.60;99.90
12291;DHT22;6208;48.956;9.076;2022-12-29T19:32:56;9.50;99.90
12291;DHT22;6208;48.956;9.076;2022-12-29T19:35:40;9.40;99.90
12291;DHT22;6208;48.956;9.076;2022-12-29T19:38:24;9.20;99.90
12291;DHT22;6208;48.956;9.076;2022-12-29T19:41:08;9.20;99.90
12291;DHT22;6208;48.956;9.076;2022-12-29T19:43:52;9.40;99.90
12291;DHT22;6208;48.956;9.076;2022-12-29T19:46:36;9.50;99.90
12291;DHT22;6208;48.956;9.076;2022-12-29T19:49:20;9.50;99.90
12291;DHT22;6208;48.956;9.076;2022-12-29T19:52:06;9.70;99.90
12291;DHT22;6208;48.956;9.076;2022-12-29T19:54:50;11.00;99.90
12291;DHT22;6208;48.956;9.076;2022-12-29T19:57:35;9.30;99.90
12291;DHT22;6208;48.956;9.076;2022-12-29T20:00:19;9.30;99.90
12291;DHT22;6208;48.956;9.076;2022-12-29T20:03:03;9.30;99.90
12291;DHT22;6208;48.956;9.076;2022-12-29T20:05:48;9.20;99.90
12291;DHT22;6208;48.956;9.076;2022-12-29T20:08:34;9.10;99.90
12291;DHT22;6208;48.956;9.076;2022-12-29T20:11:19;9.00;99.90
12291;DHT22;6208;48.956;9.076;2022-12-29T20:14:03;9.10;99.90
12291;DHT22;6208;48.956;9.076;2022-12-29T20:16:48;9.00;99.90
12291;DHT22;6208;48.956;9.076;2022-12-29T20:19:33;9.30;99.90